Time;durP1;ratioP1;P1;durP2;ratioP2;P2;SDS_P1;SDS_P2;PMS_P1;PMS_P2;Temp;Humidity;BMP_temperature;BMP_pressure;BME280_temperature;BME280_humidity;BME280_pressure;Samples;Min_cycle;Max_cycle;Signal;HPM_P1;HPM_P2
2023/12/12 00:01:39;;;;;;;9.35;2.35;;;;;;;6.81;100.00;100560.25;5008621;28;21055;-75
2023/12/12 00:04:04;;;;;;;16.23;3.10;;;;;;;6.83;100.00;100558.34;5006781;28;20508;-74
2023/12/12 00:06:30;;;;;;;15.32;3.03;;;;;;;6.89;100.00;100549.25;4999847;28;21595;-74
2023/12/12 00:08:56;;;;;;;12.32;2.42;;;;;;;6.85;100.00;100549.66;5002454;28;22273;-74
2023/12/12 00:11:21;;;;;;;17.83;3.03;;;;;;;6.96;100.00;100554.69;4986641;28;20041;-74
2023/12/12 00:13:47;;;;;;;10.32;2.63;;;;;;;6.88;100.00;100555.38;5004489;28;20037;-74
2023/12/12 00:16:12;;;;;;;12.02;2.70;;;;;;;6.81;100.00;100547.34;5006531;28;20083;-74
2023/12/12 00:18:38;;;;;;;12.90;2.72;;;;;;;6.76;100.00;100549.56;5009181;28;20409;-74
2023/12/12 00:21:03;;;;;;;11.07;2.85;;;;;;;6.73;100.00;100551.59;4992900;28;20245;-74
2023/12/12 00:23:29;;;;;;;16.92;2.40;;;;;;;6.74;100.00;100546.31;4999957;28;20117;-74
2023/12/12 00:25:55;;;;;;;12.75;2.80;;;;;;;6.73;100.00;100539.50;5003985;28;20062;-74
2023/12/12 00:28:20;;;;;;;17.80;2.95;;;;;;;6.71;100.00;100538.84;5006204;28;20037;-74
2023/12/12 00:30:47;;;;;;;15.57;3.15;;;;;;;6.79;100.00;100536.38;5005047;28;20057;-74
2023/12/12 00:33:12;;;;;;;15.20;2.55;;;;;;;6.76;100.00;100541.81;5005493;28;20504;-75
2023/12/12 00:35:37;;;;;;;19.55;2.80;;;;;;;6.82;100.00;100528.38;5001931;28;20044;-75
2023/12/12 00:38:03;;;;;;;18.15;2.75;;;;;;;6.76;100.00;100534.09;5021883;28;20096;-74
2023/12/12 00:40:28;;;;;;;12.77;2.60;;;;;;;6.70;100.00;100537.19;5002313;28;20030;-74
2023/12/12 00:42:54;;;;;;;10.93;2.35;;;;;;;6.69;100.00;100538.16;4999671;28;20037;-75
2023/12/12 00:45:19;;;;;;;13.48;2.95;;;;;;;6.67;100.00;100536.66;5003215;28;20076;-74
2023/12/12 00:47:45;;;;;;;15.23;3.65;;;;;;;6.65;100.00;100541.97;5003197;28;20030;-75
2023/12/12 00:50:10;;;;;;;20.75;4.75;;;;;;;6.74;100.00;100543.72;5005683;28;20496;-75
2023/12/12 00:52:36;;;;;;;16.00;3.03;;;;;;;6.68;100.00;100538.28;5015219;28;20439;-76
2023/12/12 00:55:01;;;;;;;14.07;2.70;;;;;;;6.68;100.00;100539.09;4997652;28;20044;-74
2023/12/12 00:57:27;;;;;;;18.88;3.03;;;;;;;6.67;100.00;100529.75;5008387;28;20536;-74
2023/12/12 00:59:55;;;;;;;23.88;2.90;;;;;;;6.71;100.00;100525.16;5007480;28;20046;-74
2023/12/12 01:02:23;;;;;;;19.05;3.08;;;;;;;6.68;100.00;100526.22;4991208;28;20052;-74
2023/12/12 01:04:49;;;;;;;19.73;2.80;;;;;;;6.67;100.00;100523.78;5004903;28;20021;-76
2023/12/12 01:07:14;;;;;;;23.70;3.70;;;;;;;6.69;100.00;100525.28;5004201;28;20065;-75
2023/12/12 01:09:40;;;;;;;26.13;3.08;;;;;;;6.67;100.00;100518.63;5004618;28;20021;-74
2023/12/12 01:12:05;;;;;;;13.15;2.85;;;;;;;6.67;100.00;100523.78;5001128;28;20038;-75
2023/12/12 01:14:31;;;;;;;16.02;2.90;;;;;;;6.66;100.00;100517.00;5002132;28;20851;-75
2023/12/12 01:16:57;;;;;;;12.40;3.03;;;;;;;6.63;100.00;100513.75;5005308;28;20042;-74
2023/12/12 01:19:22;;;;;;;26.13;4.45;;;;;;;6.65;100.00;100505.06;5008614;28;20030;-74
2023/12/12 01:21:48;;;;;;;18.25;3.33;;;;;;;6.65;100.00;100521.34;5007853;28;20054;-76
2023/12/12 01:24:13;;;;;;;21.33;3.13;;;;;;;6.67;100.00;100526.34;5000043;28;20034;-76
2023/12/12 01:26:39;;;;;;;13.20;2.70;;;;;;;6.61;100.00;100513.09;5001070;28;20443;-74
2023/12/12 01:29:04;;;;;;;17.85;3.67;;;;;;;6.59;100.00;100514.16;5008909;28;20535;-74
2023/12/12 01:31:30;;;;;;;15.57;2.75;;;;;;;6.56;100.00;100511.88;5008330;28;20046;-74
2023/12/12 01:33:55;;;;;;;11.43;2.70;;;;;;;6.55;100.00;100520.53;5008930;28;20046;-74
2023/12/12 01:36:21;;;;;;;14.02;3.80;;;;;;;6.50;100.00;100510.66;5007398;28;20049;-74
2023/12/12 01:38:46;;;;;;;19.40;3.20;;;;;;;6.50;100.00;100509.81;5010556;28;20033;-74
2023/12/12 01:41:12;;;;;;;18.23;3.38;;;;;;;6.48;100.00;100515.13;5006480;28;20045;-75
2023/12/12 01:43:37;;;;;;;20.58;3.53;;;;;;;6.47;100.00;100512.69;5005969;28;20037;-74
2023/12/12 01:46:06;;;;;;;18.33;2.88;;;;;;;6.43;100.00;100507.00;5006962;28;20038;-74
2023/12/12 01:48:32;;;;;;;15.13;3.20;;;;;;;6.40;100.00;100505.50;5008487;28;20088;-73
2023/12/12 01:50:59;;;;;;;19.88;4.10;;;;;;;6.45;100.00;100512.00;5001725;28;20120;-75
2023/12/12 01:53:37;;;;;;;17.05;2.88;;;;;;;6.40;100.00;100509.81;5011128;28;20038;-74
2023/12/12 01:56:04;;;;;;;12.02;2.90;;;;;;;6.38;100.00;100514.31;5003950;28;20039;-74
2023/12/12 01:58:30;;;;;;;20.33;3.08;;;;;;;6.38;100.00;100514.31;5007982;28;20465;-75
2023/12/12 02:00:56;;;;;;;25.80;4.18;;;;;;;6.35;100.00;100505.09;5005594;28;20153;-74
2023/12/12 02:03:24;;;;;;;23.15;3.40;;;;;;;6.34;100.00;100503.44;5009143;28;20095;-75
2023/12/12 02:05:49;;;;;;;17.90;3.45;;;;;;;6.31;100.00;100510.63;5004611;28;20042;-74
2023/12/12 02:08:16;;;;;;;23.35;3.90;;;;;;;6.29;100.00;100510.78;5011545;28;20033;-74
2023/12/12 02:10:41;;;;;;;22.73;4.63;;;;;;;6.28;100.00;100514.31;5005603;28;20034;-74
2023/12/12 02:13:07;;;;;;;16.63;4.25;;;;;;;6.26;100.00;100511.06;5029234;28;20108;-74
2023/12/12 02:15:33;;;;;;;23.70;4.60;;;;;;;6.34;100.00;100510.38;5009425;28;20049;-74
2023/12/12 02:17:58;;;;;;;14.20;4.22;;;;;;;6.28;100.00;100504.00;5015945;28;20466;-75
2023/12/12 02:20:24;;;;;;;18.77;3.92;;;;;;;6.25;100.00;100511.97;5007251;28;20034;-74
2023/12/12 02:22:49;;;;;;;30.52;6.25;;;;;;;6.29;100.00;100518.50;5013355;28;20041;-73
2023/12/12 02:25:17;;;;;;;26.92;5.63;;;;;;;6.24;100.00;100511.19;5008170;28;20504;-74
2023/12/12 02:27:43;;;;;;;25.77;5.38;;;;;;;6.23;100.00;100517.28;4992652;28;20037;-75
2023/12/12 02:30:09;;;;;;;31.50;5.97;;;;;;;6.27;100.00;100517.81;5016361;28;20045;-73
2023/12/12 02:32:35;;;;;;;23.85;5.30;;;;;;;6.24;100.00;100520.66;5008353;28;20109;-74
2023/12/12 02:35:01;;;;;;;27.42;5.05;;;;;;;6.21;100.00;100514.00;5008897;28;20486;-74
2023/12/12 02:37:27;;;;;;;34.13;5.70;;;;;;;6.21;100.00;100521.75;5009544;28;20047;-73
2023/12/12 02:39:52;;;;;;;29.52;5.25;;;;;;;6.24;100.00;100520.66;5006420;28;20046;-73
2023/12/12 02:42:18;;;;;;;35.97;6.07;;;;;;;6.21;100.00;100526.88;5013547;28;20029;-74
2023/12/12 02:44:43;;;;;;;31.85;5.13;;;;;;;6.17;100.00;100515.22;5008453;28;20045;-74
2023/12/12 02:47:09;;;;;;;27.75;5.55;;;;;;;6.19;100.00;100515.91;5011404;28;20033;-73
2023/12/12 02:49:34;;;;;;;29.15;4.28;;;;;;;6.15;100.00;100513.75;5009260;28;20041;-74
2023/12/12 02:52:00;;;;;;;28.35;4.68;;;;;;;6.15;100.00;100518.91;5013285;28;20037;-73
2023/12/12 02:54:25;;;;;;;26.92;5.43;;;;;;;6.11;100.00;100518.34;5006679;28;20034;-76
2023/12/12 02:56:50;;;;;;;28.52;4.18;;;;;;;6.08;100.00;100518.59;5011271;28;20045;-74
2023/12/12 02:59:16;;;;;;;21.58;5.60;;;;;;;6.03;100.00;100520.78;5007151;28;20042;-74
2023/12/12 03:01:42;;;;;;;16.90;4.47;;;;;;;6.00;100.00;100518.47;5008152;28;20044;-74
2023/12/12 03:04:07;;;;;;;24.10;5.05;;;;;;;6.00;100.00;100506.41;5009734;28;20046;-74
2023/12/12 03:06:33;;;;;;;15.80;4.35;;;;;;;5.98;100.00;100510.06;5009266;28;20034;-74
2023/12/12 03:08:58;;;;;;;30.23;4.45;;;;;;;5.98;100.00;100513.44;5010304;28;20038;-75
2023/12/12 03:11:23;;;;;;;32.08;4.82;;;;;;;5.95;100.00;100508.59;5010917;28;20659;-74
2023/12/12 03:13:49;;;;;;;31.27;4.82;;;;;;;5.98;100.00;100510.06;5011271;28;20205;-76
2023/12/12 03:16:14;;;;;;;25.45;5.55;;;;;;;5.94;100.00;100500.97;5006327;28;20085;-74
2023/12/12 03:18:40;;;;;;;32.85;5.45;;;;;;;5.93;100.00;100499.31;4997059;28;20108;-75
2023/12/12 03:21:06;;;;;;;28.52;4.15;;;;;;;5.92;100.00;100493.38;5005350;28;20069;-74
2023/12/12 03:23:31;;;;;;;28.75;5.85;;;;;;;5.89;100.00;100496.19;5013312;28;20034;-75
2023/12/12 03:25:57;;;;;;;27.55;4.15;;;;;;;5.82;100.00;100498.50;5008681;28;20053;-74
2023/12/12 03:28:23;;;;;;;39.47;4.90;;;;;;;5.88;100.00;100502.31;5014899;28;20034;-75
2023/12/12 03:30:49;;;;;;;30.58;4.10;;;;;;;5.86;100.00;100493.91;5013854;28;21239;-74
2023/12/12 03:33:14;;;;;;;37.50;5.03;;;;;;;5.80;100.00;100487.53;4990140;28;20037;-74
2023/12/12 03:35:39;;;;;;;38.28;4.18;;;;;;;5.77;100.00;100487.78;5009795;28;20125;-74
2023/12/12 03:38:05;;;;;;;20.95;4.05;;;;;;;5.73;100.00;100488.19;4998301;28;20034;-74
2023/12/12 03:40:30;;;;;;;25.83;4.78;;;;;;;5.68;100.00;100488.56;5009411;28;20412;-74
2023/12/12 03:42:56;;;;;;;29.00;4.13;;;;;;;5.63;100.00;100490.72;5009277;28;20520;-74
2023/12/12 03:45:21;;;;;;;27.92;5.25;;;;;;;5.59;100.00;100500.44;5010969;28;20381;-74
2023/12/12 03:47:47;;;;;;;22.77;4.13;;;;;;;5.56;100.00;100497.34;5013086;28;20021;-75
2023/12/12 03:50:13;;;;;;;22.70;4.25;;;;;;;5.51;100.00;100490.00;5010160;28;20044;-74
2023/12/12 03:52:39;;;;;;;24.58;5.05;;;;;;;5.46;100.00;100490.41;5018363;28;20476;-74
2023/12/12 03:55:07;;;;;;;19.95;4.57;;;;;;;5.45;100.00;100486.19;5007995;28;20038;-74
2023/12/12 03:57:32;;;;;;;20.08;3.97;;;;;;;5.43;100.00;100484.72;5009055;28;20030;-74
2023/12/12 03:59:58;;;;;;;21.27;3.92;;;;;;;5.43;100.00;100477.00;5009428;28;20197;-74
2023/12/12 04:02:23;;;;;;;26.33;3.80;;;;;;;5.44;100.00;100463.19;5014153;28;20048;-75
2023/12/12 04:04:49;;;;;;;25.70;3.97;;;;;;;5.42;100.00;100458.16;5027602;28;20065;-73
2023/12/12 04:07:16;;;;;;;21.17;4.18;;;;;;;5.44;100.00;100458.03;5011887;28;20034;-73
2023/12/12 04:09:42;;;;;;;28.52;4.30;;;;;;;5.44;100.00;100447.75;5009758;28;20033;-74
2023/12/12 04:12:07;;;;;;;22.45;3.90;;;;;;;5.44;100.00;100445.19;4996967;28;20385;-75
2023/12/12 04:14:33;;;;;;;27.63;4.78;;;;;;;5.43;100.00;100441.81;5006797;28;20025;-74
2023/12/12 04:16:58;;;;;;;30.88;4.63;;;;;;;5.46;100.00;100444.13;5014082;28;20030;-76
2023/12/12 04:19:23;;;;;;;33.20;6.10;;;;;;;5.45;100.00;100437.34;5009272;28;20471;-74
2023/12/12 04:21:49;;;;;;;22.38;3.75;;;;;;;5.45;100.00;100434.75;5012484;28;20038;-74
2023/12/12 04:24:14;;;;;;;24.85;4.07;;;;;;;5.45;100.00;100428.81;5009692;28;20084;-74
2023/12/12 04:26:40;;;;;;;16.63;4.28;;;;;;;5.44;100.00;100429.75;5002940;28;20033;-74
2023/12/12 04:29:06;;;;;;;27.05;4.95;;;;;;;5.45;100.00;100424.47;5010499;28;20041;-74
2023/12/12 04:31:31;;;;;;;18.27;4.32;;;;;;;5.43;100.00;100421.22;5006433;28;20098;-74
2023/12/12 04:33:56;;;;;;;20.35;4.30;;;;;;;5.43;100.00;100426.38;5005991;28;20508;-74
2023/12/12 04:36:22;;;;;;;23.17;3.90;;;;;;;5.43;100.00;100426.38;5011969;28;20041;-74
2023/12/12 04:38:47;;;;;;;21.02;4.80;;;;;;;5.44;100.00;100429.75;5007972;28;20061;-73
2023/12/12 04:41:13;;;;;;;19.15;4.28;;;;;;;5.42;100.00;100424.72;5012374;28;20396;-74
2023/12/12 04:43:38;;;;;;;20.00;4.40;;;;;;;5.43;100.00;100425.56;5012984;28;20396;-75
2023/12/12 04:46:04;;;;;;;25.77;4.70;;;;;;;5.43;100.00;100425.56;5013634;28;20050;-74
2023/12/12 04:48:29;;;;;;;13.88;4.13;;;;;;;5.43;100.00;100425.56;5014081;28;20091;-74
2023/12/12 04:50:55;;;;;;;24.10;4.80;;;;;;;5.42;100.00;100417.03;5007357;28;20042;-74
2023/12/12 04:53:20;;;;;;;25.75;4.32;;;;;;;5.41;100.00;100420.56;5007353;28;20100;-74
2023/12/12 04:55:46;;;;;;;18.15;3.42;;;;;;;5.41;100.00;100412.03;5007199;28;20042;-74
2023/12/12 04:58:11;;;;;;;34.72;4.25;;;;;;;5.42;100.00;100416.22;5008194;28;20038;-74
2023/12/12 05:00:37;;;;;;;26.20;4.70;;;;;;;5.36;100.00;100409.03;5012818;28;20034;-74
2023/12/12 05:03:02;;;;;;;18.67;5.00;;;;;;;5.33;100.00;100411.84;5011015;28;20034;-74
2023/12/12 05:05:28;;;;;;;23.95;4.38;;;;;;;5.30;100.00;100412.13;5006180;28;20034;-74
2023/12/12 05:07:53;;;;;;;20.15;4.15;;;;;;;5.26;100.00;100406.44;5006731;28;20037;-74
2023/12/12 05:10:18;;;;;;;23.60;5.03;;;;;;;5.25;100.00;100405.63;4999680;28;20512;-74
2023/12/12 05:12:44;;;;;;;17.00;4.35;;;;;;;5.24;100.00;100403.19;4997007;28;20084;-74
2023/12/12 05:15:10;;;;;;;24.60;4.30;;;;;;;5.24;100.00;100395.47;5013933;28;20044;-74
2023/12/12 05:17:35;;;;;;;26.33;5.65;;;;;;;5.28;100.00;100393.47;5009935;28;20079;-74
2023/12/12 05:20:02;;;;;;;27.42;5.10;;;;;;;5.29;100.00;100387.34;5010465;28;20053;-75
2023/12/12 05:22:28;;;;;;;17.92;4.28;;;;;;;5.26;100.00;100398.72;5003808;28;20030;-74
2023/12/12 05:24:54;;;;;;;33.45;5.97;;;;;;;5.29;100.00;100385.59;5006721;28;20072;-75
2023/12/12 05:27:20;;;;;;;28.27;6.18;;;;;;;5.31;100.00;100388.84;5010289;28;20026;-74
2023/12/12 05:29:46;;;;;;;30.95;4.97;;;;;;;5.33;100.00;100383.56;5006330;28;20397;-75
2023/12/12 05:32:11;;;;;;;38.42;5.57;;;;;;;5.35;100.00;100382.50;5010418;28;20088;-74
2023/12/12 05:34:37;;;;;;;26.90;6.22;;;;;;;5.36;100.00;100376.41;5009527;28;20061;-74
2023/12/12 05:37:03;;;;;;;34.97;6.60;;;;;;;5.35;100.00;100373.97;4998929;28;20401;-74
2023/12/12 05:39:29;;;;;;;25.92;4.82;;;;;;;5.35;100.00;100373.97;5008681;28;20065;-74
2023/12/12 05:41:55;;;;;;;28.67;5.22;;;;;;;5.35;100.00;100372.22;4991090;28;20042;-74
2023/12/12 05:44:20;;;;;;;26.75;5.85;;;;;;;5.35;100.00;100376.53;5007547;28;20034;-74
2023/12/12 05:46:46;;;;;;;26.42;4.93;;;;;;;5.33;100.00;100368.16;5009316;28;20460;-74
2023/12/12 05:49:11;;;;;;;31.33;5.28;;;;;;;5.29;100.00;100374.50;5004183;28;20670;-74
2023/12/12 05:51:40;;;;;;;24.27;5.10;;;;;;;5.29;100.00;100382.22;5008701;28;20038;-73
2023/12/12 05:54:08;;;;;;;30.40;6.00;;;;;;;5.31;100.00;100382.88;5008449;28;20037;-73
2023/12/12 05:56:34;;;;;;;28.60;4.28;;;;;;;5.33;100.00;100391.28;5008343;28;20088;-74
2023/12/12 05:59:00;;;;;;;41.72;5.28;;;;;;;5.44;100.00;100388.59;5008966;28;20390;-74
2023/12/12 06:01:25;;;;;;;37.67;5.97;;;;;;;5.46;100.00;100386.72;5014206;28;20080;-74
2023/12/12 06:03:51;;;;;;;35.40;6.78;;;;;;;5.59;100.00;100391.59;5012619;28;20489;-74
2023/12/12 06:06:16;;;;;;;47.97;8.38;;;;;;;5.70;100.00;100388.91;5011113;28;20408;-73
2023/12/12 06:08:42;;;;;;;48.80;7.28;;;;;;;5.82;100.00;100380.13;5013911;28;20045;-74
2023/12/12 06:11:07;;;;;;;38.35;5.53;;;;;;;5.76;100.00;100383.22;5009861;28;20038;-74
2023/12/12 06:13:33;;;;;;;39.28;5.40;;;;;;;5.78;100.00;100383.09;5012780;28;20041;-74
2023/12/12 06:15:58;;;;;;;39.17;7.20;;;;;;;5.81;100.00;100380.25;5011177;28;20042;-74
2023/12/12 06:18:25;;;;;;;38.70;5.65;;;;;;;5.88;100.00;100377.94;5013555;28;20064;-74
2023/12/12 06:20:50;;;;;;;47.38;6.47;;;;;;;5.92;100.00;100369.03;5011406;28;20037;-74
2023/12/12 06:23:17;;;;;;;27.55;5.05;;;;;;;5.96;100.00;100371.22;5015694;28;20051;-76
2023/12/12 06:25:43;;;;;;;46.67;5.32;;;;;;;6.04;100.00;100362.81;5014374;28;20044;-73
2023/12/12 06:28:09;;;;;;;31.70;5.28;;;;;;;6.01;100.00;100360.53;5009953;28;20113;-73
2023/12/12 06:30:34;;;;;;;32.70;6.05;;;;;;;6.09;100.00;100359.84;5011886;28;20045;-74
2023/12/12 06:32:59;;;;;;;34.85;5.40;;;;;;;6.08;100.00;100359.00;5014459;28;20405;-75
2023/12/12 06:35:25;;;;;;;36.92;4.18;;;;;;;6.12;100.00;100352.66;4998963;28;20049;-74
2023/12/12 06:37:51;;;;;;;31.50;4.47;;;;;;;6.06;100.00;100360.91;5015686;28;20641;-74
2023/12/12 06:40:17;;;;;;;32.45;4.47;;;;;;;6.05;100.00;100354.16;5011264;28;20069;-76
2023/12/12 06:42:47;;;;;;;37.92;6.90;;;;;;;6.09;100.00;100358.06;5015020;28;20103;-73
2023/12/12 06:45:13;;;;;;;40.08;5.63;;;;;;;6.20;100.00;100355.34;5011120;28;20484;-74
2023/12/12 06:47:39;;;;;;;37.60;4.30;;;;;;;6.12;100.00;100346.66;5012812;28;20037;-74
2023/12/12 06:50:05;;;;;;;31.15;4.38;;;;;;;6.18;100.00;100344.38;5013598;28;20120;-75
2023/12/12 06:52:31;;;;;;;29.20;4.85;;;;;;;6.24;100.00;100348.16;5013841;28;20040;-75
2023/12/12 06:54:56;;;;;;;27.48;4.57;;;;;;;6.30;100.00;100339.88;5009629;28;20141;-75
2023/12/12 06:57:22;;;;;;;29.98;3.60;;;;;;;6.27;100.00;100341.91;4997334;28;20488;-74
2023/12/12 06:59:49;;;;;;;25.67;3.85;;;;;;;6.29;100.00;100333.09;5014315;28;20397;-73
2023/12/12 07:02:14;;;;;;;14.77;3.30;;;;;;;6.32;100.00;100337.16;5016386;28;20129;-75
2023/12/12 07:04:40;;;;;;;28.98;3.38;;;;;;;6.37;100.00;100333.22;5012181;28;20029;-74
2023/12/12 07:07:05;;;;;;;29.80;3.85;;;;;;;6.24;100.00;100333.50;5012905;28;20044;-73
2023/12/12 07:09:31;;;;;;;32.80;4.35;;;;;;;6.27;100.00;100327.25;5015031;28;20025;-74
2023/12/12 07:11:56;;;;;;;30.52;4.43;;;;;;;6.22;100.00;100329.47;5008942;28;20044;-73
2023/12/12 07:14:21;;;;;;;28.90;3.95;;;;;;;6.22;100.00;100322.53;5010458;28;20085;-74
2023/12/12 07:16:47;;;;;;;28.30;3.15;;;;;;;6.29;100.00;100315.09;4997688;28;20523;-74
2023/12/12 07:19:12;;;;;;;22.08;4.78;;;;;;;6.22;100.00;100316.59;5004407;28;22765;-73
2023/12/12 07:21:42;;;;;;;25.50;4.57;;;;;;;6.19;100.00;100319.44;5013243;28;20061;-73
2023/12/12 07:24:07;;;;;;;18.10;3.95;;;;;;;6.09;100.00;100311.72;5010349;28;20037;-74
2023/12/12 07:26:33;;;;;;;38.35;4.57;;;;;;;6.11;100.00;100306.44;5007666;28;20457;-75
2023/12/12 07:28:59;;;;;;;20.42;3.20;;;;;;;6.08;100.00;100306.72;5009842;28;20041;-74
2023/12/12 07:31:25;;;;;;;27.65;4.15;;;;;;;6.08;100.00;100309.28;5015190;28;20076;-73
2023/12/12 07:33:50;;;;;;;37.50;4.68;;;;;;;6.12;100.00;100306.31;5016262;28;20057;-73
2023/12/12 07:36:16;;;;;;;27.00;3.60;;;;;;;6.05;100.00;100307.81;5006578;28;20038;-76
2023/12/12 07:38:41;;;;;;;27.75;4.43;;;;;;;6.22;100.00;100294.22;5016775;28;20060;-74
2023/12/12 07:41:07;;;;;;;27.48;4.07;;;;;;;6.36;100.00;100292.94;5008656;28;21942;-74
2023/12/12 07:43:33;;;;;;;28.00;4.38;;;;;;;6.30;100.00;100290.94;5011669;28;20030;-74
2023/12/12 07:45:58;;;;;;;32.58;4.65;;;;;;;6.35;100.00;100288.75;4990712;28;20038;-75
2023/12/12 07:48:25;;;;;;;18.38;3.22;;;;;;;6.30;100.00;100292.72;5011282;28;20088;-74
2023/12/12 07:50:50;;;;;;;27.38;5.03;;;;;;;6.24;100.00;100287.16;5012074;28;20041;-74
2023/12/12 07:53:15;;;;;;;33.65;5.10;;;;;;;6.24;100.00;100291.50;5018090;28;20049;-74
2023/12/12 07:55:41;;;;;;;34.08;5.35;;;;;;;6.18;100.00;100294.66;5008463;28;20034;-74
2023/12/12 07:58:07;;;;;;;31.77;4.60;;;;;;;6.18;100.00;100284.34;4998898;28;20038;-75
2023/12/12 08:00:32;;;;;;;28.70;4.57;;;;;;;6.21;100.00;100282.28;5011332;28;20073;-74
2023/12/12 08:02:58;;;;;;;33.25;4.32;;;;;;;6.19;100.00;100280.81;5012851;28;20037;-74
2023/12/12 08:05:24;;;;;;;24.42;4.63;;;;;;;6.28;100.00;100279.16;5008468;28;20042;-75
2023/12/12 08:07:50;;;;;;;34.20;4.28;;;;;;;6.33;100.00;100277.78;5013814;28;20650;-74
2023/12/12 08:10:15;;;;;;;34.70;5.03;;;;;;;6.38;100.00;100282.50;5018685;28;20034;-74
2023/12/12 08:12:42;;;;;;;32.00;5.78;;;;;;;6.47;100.00;100283.44;5014249;28;20045;-74
2023/12/12 08:15:08;;;;;;;36.03;5.32;;;;;;;6.49;100.00;100281.53;5008043;28;20049;-74
2023/12/12 08:17:34;;;;;;;37.65;5.65;;;;;;;6.54;100.00;100281.91;5017735;28;20035;-75
2023/12/12 08:19:59;;;;;;;29.73;5.40;;;;;;;6.54;100.00;100275.00;5018137;28;20459;-74
2023/12/12 08:22:25;;;;;;;40.88;4.90;;;;;;;6.60;100.00;100271.84;5010660;28;20034;-77
2023/12/12 08:24:51;;;;;;;26.33;4.65;;;;;;;6.70;100.00;100279.53;5009670;28;20045;-76
2023/12/12 08:27:20;;;;;;;31.75;4.75;;;;;;;6.71;100.00;100277.78;5008168;28;20481;-74
2023/12/12 08:29:48;;;;;;;29.65;5.20;;;;;;;6.69;100.00;100277.13;5010551;28;20065;-74
2023/12/12 08:32:14;;;;;;;32.25;6.05;;;;;;;6.82;100.00;100280.16;5016445;28;20124;-75
2023/12/12 08:34:39;;;;;;;21.95;3.70;;;;;;;6.91;100.00;100273.31;5014074;28;20025;-74
2023/12/12 08:37:05;;;;;;;22.77;5.35;;;;;;;6.94;100.00;100273.03;4995211;28;20408;-74
2023/12/12 08:39:31;;;;;;;21.80;3.83;;;;;;;6.99;100.00;100271.63;5017418;28;20033;-74
2023/12/12 08:41:57;;;;;;;23.27;4.40;;;;;;;6.93;100.00;100271.41;5013735;28;20030;-75
2023/12/12 08:44:25;;;;;;;24.20;3.88;;;;;;;7.03;100.00;100272.16;5013567;28;20550;-75
2023/12/12 08:46:51;;;;;;;28.65;4.85;;;;;;;6.98;100.00;100264.84;5001945;28;20041;-74
2023/12/12 08:49:19;;;;;;;32.20;5.20;;;;;;;7.13;100.00;100266.94;5005742;28;20041;-74
2023/12/12 08:51:45;;;;;;;26.35;3.95;;;;;;;7.15;100.00;100254.69;5007747;28;20034;-74
2023/12/12 08:54:10;;;;;;;30.48;3.72;;;;;;;7.11;100.00;100249.03;5006553;28;20559;-75
2023/12/12 08:56:36;;;;;;;26.55;3.80;;;;;;;7.20;100.00;100253.31;5009730;28;20034;-75
2023/12/12 08:59:02;;;;;;;30.30;4.00;;;;;;;7.28;100.00;100246.59;5007298;28;20042;-74
2023/12/12 09:01:28;;;;;;;27.48;4.57;;;;;;;7.31;100.00;100244.53;5006981;28;20122;-76
2023/12/12 09:03:53;;;;;;;18.17;3.30;;;;;;;7.41;100.00;100242.69;5011576;28;20037;-76
2023/12/12 09:06:19;;;;;;;33.58;4.57;;;;;;;7.41;100.00;100239.31;5021270;28;20037;-74
2023/12/12 09:08:44;;;;;;;15.40;3.35;;;;;;;7.50;100.00;100233.25;4996621;28;20042;-74
2023/12/12 09:11:10;;;;;;;24.52;3.58;;;;;;;7.53;100.00;100235.50;5011194;28;20069;-74
2023/12/12 09:13:36;;;;;;;18.65;3.55;;;;;;;7.55;100.00;100235.38;5011934;28;21134;-74
2023/12/12 09:16:01;;;;;;;28.08;3.90;;;;;;;7.62;100.00;100231.22;5012497;28;20109;-74
2023/12/12 09:18:27;;;;;;;27.10;3.92;;;;;;;7.62;100.00;100220.09;5014608;28;20490;-74
2023/12/12 09:20:52;;;;;;;24.45;3.92;;;;;;;7.64;100.00;100219.00;5014982;28;20050;-75
2023/12/12 09:23:18;;;;;;;21.10;4.20;;;;;;;7.58;100.00;100211.84;5014322;28;20083;-74
2023/12/12 09:25:43;;;;;;;24.33;4.82;;;;;;;7.57;100.00;100203.31;5001142;28;20045;-74
2023/12/12 09:28:09;;;;;;;25.35;4.32;;;;;;;7.58;100.00;100199.75;5009503;28;20112;-75
2023/12/12 09:30:34;;;;;;;21.88;4.47;;;;;;;7.64;100.00;100205.28;5011871;28;20447;-75
2023/12/12 09:33:00;;;;;;;19.13;4.32;;;;;;;7.80;100.00;100208.78;5008543;28;20072;-75
2023/12/12 09:35:26;;;;;;;25.73;4.38;;;;;;;7.78;100.00;100205.53;5007310;28;20042;-75
2023/12/12 09:37:51;;;;;;;24.95;4.95;;;;;;;7.89;100.00;100206.25;5004575;28;20030;-74
2023/12/12 09:40:17;;;;;;;24.23;5.32;;;;;;;8.01;100.00;100199.06;5007739;28;20030;-74
2023/12/12 09:42:47;;;;;;;18.38;4.90;;;;;;;8.08;100.00;100189.72;4991779;28;20114;-74
2023/12/12 09:45:14;;;;;;;21.85;4.78;;;;;;;8.11;100.00;100189.41;5008430;28;20041;-75
2023/12/12 09:47:42;;;;;;;30.00;4.47;;;;;;;8.11;100.00;100187.63;5012853;28;20548;-74
2023/12/12 09:50:10;;;;;;;12.40;3.08;;;;;;;8.22;100.00;100185.75;5008582;28;20125;-75
2023/12/12 09:52:36;;;;;;;23.70;4.15;;;;;;;8.25;100.00;100188.84;5012866;28;20504;-75
2023/12/12 09:55:03;;;;;;;17.63;3.45;;;;;;;8.27;100.00;100184.31;5005058;28;20049;-74
2023/12/12 09:57:30;;;;;;;21.67;3.63;;;;;;;8.29;100.00;100181.59;4996309;28;20091;-75
2023/12/12 09:59:58;;;;;;;24.20;4.18;;;;;;;8.41;100.00;100180.31;5007933;28;20046;-74
2023/12/12 10:02:27;;;;;;;21.42;3.22;;;;;;;8.34;100.00;100172.41;5010145;28;20420;-75
2023/12/12 10:04:53;;;;;;;12.70;3.05;;;;;;;8.39;100.00;100166.75;5005919;28;20049;-76
2023/12/12 10:07:19;;;;;;;18.65;2.88;;;;;;;8.38;100.00;100163.38;5008804;28;20025;-76
2023/12/12 10:09:46;;;;;;;16.58;3.13;;;;;;;8.46;100.00;100154.06;5011440;28;20030;-75
2023/12/12 10:12:11;;;;;;;22.10;3.58;;;;;;;8.39;100.00;100140.91;4995214;28;20025;-75
2023/12/12 10:14:41;;;;;;;18.98;3.58;;;;;;;8.45;100.00;100142.91;5001620;28;20034;-74
2023/12/12 10:17:10;;;;;;;19.40;3.65;;;;;;;8.44;100.00;100137.88;5017648;28;20034;-74
2023/12/12 10:19:37;;;;;;;17.15;4.07;;;;;;;8.50;100.00;100132.91;5010425;28;20036;-74
2023/12/12 10:22:09;;;;;;;15.68;3.05;;;;;;;8.45;100.00;100124.81;4990761;28;20093;-74
2023/12/12 10:24:36;;;;;;;15.38;2.80;;;;;;;8.49;100.00;100120.13;5004982;28;20025;-75
2023/12/12 10:27:03;;;;;;;18.38;3.22;;;;;;;8.58;100.00;100111.44;5010406;28;20597;-76
2023/12/12 10:29:30;;;;;;;14.48;2.72;;;;;;;8.65;100.00;100104.66;5010992;28;20026;-75
2023/12/12 10:31:58;;;;;;;17.48;3.55;;;;;;;8.68;100.00;100095.78;5009735;28;20042;-75
2023/12/12 10:34:27;;;;;;;13.95;2.90;;;;;;;8.65;100.00;100099.50;5001076;28;20089;-75
2023/12/12 10:36:53;;;;;;;19.40;2.70;;;;;;;8.71;100.00;100091.09;5012776;28;20080;-75
2023/12/12 10:39:19;;;;;;;12.73;3.45;;;;;;;8.76;100.00;100088.84;4986960;28;20132;-75
2023/12/12 10:41:51;;;;;;;15.10;3.67;;;;;;;8.69;100.00;100094.81;5013201;28;20091;-75
2023/12/12 10:44:21;;;;;;;14.05;2.40;;;;;;;8.63;100.00;100090.28;5007995;28;20056;-75
2023/12/12 10:46:51;;;;;;;19.88;3.30;;;;;;;8.80;100.00;100091.09;5008654;28;20034;-75
2023/12/12 10:49:18;;;;;;;16.52;3.58;;;;;;;8.76;100.00;100094.00;5013482;28;20121;-75
2023/12/12 10:51:44;;;;;;;14.40;3.80;;;;;;;8.84;100.00;100088.03;5009358;28;20038;-75
2023/12/12 10:54:10;;;;;;;13.85;3.22;;;;;;;8.90;100.00;100089.16;5010787;28;20113;-73
2023/12/12 10:56:37;;;;;;;15.32;3.33;;;;;;;8.96;100.00;100088.50;5012374;28;20045;-75
2023/12/12 10:59:05;;;;;;;16.77;3.00;;;;;;;9.07;100.00;100083.00;4998855;28;20088;-76
2023/12/12 11:01:32;;;;;;;16.85;2.88;;;;;;;9.12;100.00;100080.75;5009035;28;20034;-74
2023/12/12 11:04:04;;;;;;;10.32;3.10;;;;;;;9.24;100.00;100070.06;5009384;28;20030;-75
2023/12/12 11:06:30;;;;;;;;;;;;;;;9.13;100.00;100066.03;5011398;28;20056;-75
2023/12/12 11:08:55;;;;;;;19.83;2.80;;;;;;;9.16;100.00;100063.91;5012681;28;20663;-74
2023/12/12 11:11:21;;;;;;;13.90;2.92;;;;;;;9.21;100.00;100057.44;5009923;28;20030;-76